Time;durP1;ratioP1;P1;durP2;ratioP2;P2;SDS_P1;SDS_P2;PMS_P1;PMS_P2;Temp;Humidity;BMP_temperature;BMP_pressure;BME280_temperature;BME280_humidity;BME280_pressure;Samples;Min_cycle;Max_cycle;Signal;HPM_P1;HPM_P2
2022/04/10 00:01:32;;;;;;;;;32.00;27.33;;;;;-147.47;100.00;64613.53;5109012;28;8805;-71
2022/04/10 00:03:58;;;;;;;;;30.00;29.00;;;;;-147.47;100.00;64613.53;5110448;28;11234;-71
2022/04/10 00:06:25;;;;;;;;;32.33;28.67;;;;;-147.47;100.00;64613.53;5110109;28;10368;-71
2022/04/10 00:08:50;;;;;;;;;29.75;29.00;;;;;-147.47;100.00;64613.53;5110297;28;8769;-70
2022/04/10 00:11:16;;;;;;;;;32.75;29.50;;;;;-147.47;100.00;64613.53;5110265;28;9682;-70
2022/04/10 00:13:41;;;;;;;;;31.00;29.50;;;;;-147.47;100.00;64613.53;5110167;28;8785;-69
2022/04/10 00:16:08;;;;;;;;;35.25;32.50;;;;;-147.47;100.00;64613.53;5110270;28;8800;-70
2022/04/10 00:18:36;;;;;;;;;37.75;32.00;;;;;-147.47;100.00;64613.53;5109695;28;8797;-69
2022/04/10 00:21:03;;;;;;;;;34.75;32.00;;;;;-147.47;100.00;64613.53;5109528;28;9858;-70
2022/04/10 00:23:28;;;;;;;;;32.00;28.33;;;;;-147.47;100.00;64613.53;5110212;28;9953;-71
2022/04/10 00:25:54;;;;;;;;;32.50;30.50;;;;;-147.47;100.00;64613.53;5109616;28;9577;-69
2022/04/10 00:28:20;;;;;;;;;35.75;33.25;;;;;-147.47;100.00;64613.53;5109585;28;8811;-71
2022/04/10 00:30:45;;;;;;;;;39.50;32.25;;;;;-147.47;100.00;64613.53;5109674;28;9817;-70
2022/04/10 00:33:11;;;;;;;;;35.00;30.50;;;;;-147.47;100.00;64613.53;5091464;28;8824;-70
2022/04/10 00:35:36;;;;;;;;;35.00;32.50;;;;;-147.47;100.00;64613.53;5109461;28;8793;-70
2022/04/10 00:38:02;;;;;;;;;35.25;32.00;;;;;-147.47;100.00;64613.53;5091670;28;8930;-71
2022/04/10 00:40:27;;;;;;;;;29.00;28.00;;;;;-147.47;100.00;64613.53;5106502;27;8813;-70
2022/04/10 00:42:53;;;;;;;;;37.75;33.25;;;;;-147.47;100.00;64613.53;5101482;28;8817;-68
2022/04/10 00:45:20;;;;;;;;;39.75;34.50;;;;;-147.47;100.00;64613.53;5109896;28;8827;-70
2022/04/10 00:47:47;;;;;;;;;34.25;29.50;;;;;-147.47;100.00;64613.53;5109881;28;12099;-69
2022/04/10 00:50:15;;;;;;;;;31.50;29.50;;;;;-147.47;100.00;64613.53;5108059;28;23638;-69
2022/04/10 00:52:45;;;;;;;;;32.25;30.75;;;;;-147.47;100.00;64613.53;5105620;28;27119;-69
2022/04/10 00:55:11;;;;;;;;;30.25;26.75;;;;;-147.47;100.00;64613.53;5105633;28;22274;-70
2022/04/10 00:57:37;;;;;;;;;32.75;30.25;;;;;-147.47;100.00;64613.53;5103758;28;26019;-68
2022/04/10 01:00:10;;;;;;;;;24.67;23.67;;;;;-147.47;100.00;64613.53;5098469;28;25727;-69
2022/04/10 01:02:37;;;;;;;;;31.75;31.75;;;;;-147.47;100.00;64613.53;5098520;28;27174;-69
2022/04/10 01:05:04;;;;;;;;;32.50;27.75;;;;;-147.47;100.00;64613.53;5099899;28;26825;-69
2022/04/10 01:07:30;;;;;;;;;33.50;29.50;;;;;-147.47;100.00;64659.50;5093535;28;27169;-70
2022/04/10 01:09:56;;;;;;;;;34.00;29.00;;;;;-147.47;100.00;64613.53;5097628;28;26935;-70
2022/04/10 01:12:22;;;;;;;;;31.00;27.75;;;;;-147.47;100.00;64613.53;5095074;28;26091;-69
2022/04/10 01:14:48;;;;;;;;;29.00;26.00;;;;;-147.47;100.00;64613.53;5099720;28;26981;-71
2022/04/10 01:17:14;;;;;;;;;28.25;26.25;;;;;-146.81;100.00;64613.53;5103208;27;25393;-71
2022/04/10 01:19:41;;;;;;;;;28.50;27.75;;;;;-147.47;100.00;64613.53;5103127;27;28325;-70
2022/04/10 01:22:12;;;;;;;;;30.25;28.50;;;;;-147.47;100.00;64613.53;5098369;27;26649;-70
2022/04/10 01:24:38;;;;;;;;;34.25;29.75;;;;;-147.47;100.00;64613.53;5087853;28;26746;-70
2022/04/10 01:27:05;;;;;;;;;29.00;28.75;;;;;-147.47;100.00;64613.53;5096005;28;27175;-70
2022/04/10 01:29:31;;;;;;;;;33.75;30.50;;;;;64.49;100.00;64613.53;5092375;28;27757;-72
2022/04/10 01:31:57;;;;;;;;;32.25;24.50;;;;;-147.47;100.00;64613.53;5089654;28;28111;-70
2022/04/10 01:34:23;;;;;;;;;33.75;32.75;;;;;-147.47;100.00;64613.53;5090957;28;28171;-71
2022/04/10 01:36:49;;;;;;;;;30.25;26.50;;;;;-147.47;100.00;64613.53;5104802;27;27884;-70
2022/04/10 01:39:15;;;;;;;;;34.75;30.00;;;;;32.38;100.00;64613.53;5110262;27;28701;-69
2022/04/10 01:41:41;;;;;;;;;30.50;25.75;;;;;-147.47;100.00;64613.53;5109905;27;27814;-71
2022/04/10 01:44:07;;;;;;;;;34.00;31.75;;;;;181.82;100.00;64613.53;5109843;27;27786;-71
2022/04/10 01:46:34;;;;;;;;;29.50;28.00;;;;;170.00;100.00;64613.53;5092276;27;28549;-70
2022/04/10 01:49:00;;;;;;;;;29.25;25.50;;;;;-147.47;100.00;108861.94;5112414;27;28455;-72
2022/04/10 01:51:26;;;;;;;;;30.50;27.00;;;;;-147.47;100.00;64613.53;5093374;27;28576;-70
2022/04/10 01:53:56;;;;;;;;;30.75;25.75;;;;;189.80;100.00;64613.53;5112178;27;28273;-72
2022/04/10 01:56:22;;;;;;;;;30.50;28.00;;;;;-147.47;100.00;64613.53;5112492;27;28744;-72
2022/04/10 01:58:48;;;;;;;;;26.00;23.00;;;;;-147.47;100.00;64613.53;5111881;27;29500;-70
2022/04/10 02:01:15;;;;;;;;;27.75;23.75;;;;;-147.47;100.00;109028.09;5111944;27;28350;-71
2022/04/10 02:03:42;;;;;;;;;25.00;23.67;;;;;-147.47;100.00;64613.53;5112243;27;27883;-71
2022/04/10 02:06:10;;;;;;;;;31.50;27.50;;;;;-147.47;100.00;64613.53;5107978;27;28495;-72
2022/04/10 02:08:36;;;;;;;;;25.33;24.00;;;;;-147.47;100.00;64613.53;5091432;28;28382;-70
2022/04/10 02:11:15;;;;;;;;;27.75;26.00;;;;;-147.47;100.00;64613.53;5091341;28;28623;-72
2022/04/10 02:13:42;;;;;;;;;27.00;24.25;;;;;-147.47;100.00;64613.53;5091696;28;28787;-71
2022/04/10 02:16:11;;;;;;;;;30.33;23.00;;;;;-147.47;100.00;64613.53;5073253;28;29696;-72
2022/04/10 02:18:36;;;;;;;;;26.67;22.67;;;;;-147.47;100.00;64613.53;5107119;27;28512;-71
2022/04/10 02:21:02;;;;;;;;;27.33;23.00;;;;;-147.47;100.00;64613.53;5111673;27;28324;-72
2022/04/10 02:23:28;;;;;;;;;24.33;22.33;;;;;-147.47;100.00;64613.53;5111792;27;28826;-71
2022/04/10 02:25:54;;;;;;;;;22.33;20.67;;;;;-147.47;100.00;64613.53;5110949;27;28975;-71
2022/04/10 02:28:20;;;;;;;;;27.50;25.75;;;;;-147.47;100.00;64613.53;5110551;27;28396;-72
2022/04/10 02:30:45;;;;;;;;;26.75;23.75;;;;;-147.47;100.00;64613.53;5110551;27;28518;-70
2022/04/10 02:33:10;;;;;;;;;26.00;21.00;;;;;-147.47;100.00;64613.53;5111269;27;28770;-71
2022/04/10 02:35:36;;;;;;;;;25.00;24.25;;;;;-147.47;100.00;64613.53;5105352;27;28545;-71
2022/04/10 02:38:01;;;;;;;;;25.67;23.33;;;;;-147.47;100.00;64613.53;5090339;28;28541;-70
2022/04/10 02:40:27;;;;;;;;;28.25;25.25;;;;;-147.47;100.00;64613.53;5090780;28;28471;-71
2022/04/10 02:42:52;;;;;;;;;26.25;25.50;;;;;-147.47;100.00;64613.53;5090846;28;28534;-71
2022/04/10 02:45:18;;;;;;;;;33.25;26.50;;;;;-147.47;100.00;64613.53;5098813;27;28397;-72
2022/04/10 02:47:43;;;;;;;;;26.00;23.50;;;;;-147.47;100.00;64613.53;5110925;27;28483;-72
2022/04/10 02:50:09;;;;;;;;;23.67;19.00;;;;;-147.47;100.00;64613.53;5111215;27;28585;-72
2022/04/10 02:52:34;;;;;;;;;30.25;25.50;;;;;-147.47;100.00;64613.53;5111320;27;28558;-72
2022/04/10 02:55:00;;;;;;;;;30.00;27.75;;;;;-147.47;100.00;64613.53;5111117;27;28759;-71
2022/04/10 02:57:25;;;;;;;;;33.00;28.75;;;;;-147.47;100.00;64613.53;5092797;27;28464;-71
2022/04/10 02:59:51;;;;;;;;;32.75;26.25;;;;;-147.47;100.00;64613.53;5110560;27;28771;-71
2022/04/10 03:02:16;;;;;;;;;31.50;28.25;;;;;-147.47;100.00;64613.53;5111248;27;28496;-72
2022/04/10 03:04:42;;;;;;;;;29.75;27.50;;;;;-147.47;100.00;64613.53;5111417;27;28813;-71
2022/04/10 03:07:07;;;;;;;;;31.50;25.75;;;;;-147.47;100.00;64613.53;5098299;27;28764;-72
2022/04/10 03:09:33;;;;;;;;;34.50;30.00;;;;;-147.47;100.00;64613.53;5090656;28;28482;-71
2022/04/10 03:11:58;;;;;;;;;33.75;30.25;;;;;-147.47;100.00;64613.53;5090615;28;28381;-71
2022/04/10 03:14:23;;;;;;;;;33.25;31.00;;;;;-147.47;100.00;64613.53;5090152;28;28681;-71
2022/04/10 03:16:49;;;;;;;;;32.50;30.50;;;;;-147.47;100.00;64613.53;5090257;28;29210;-71
2022/04/10 03:19:14;;;;;;;;;33.25;29.75;;;;;-147.47;100.00;64613.53;5098240;27;28451;-71
2022/04/10 03:21:40;;;;;;;;;36.50;32.50;;;;;-147.47;100.00;64613.53;5099611;27;28539;-70
2022/04/10 03:24:05;;;;;;;;;30.50;28.25;;;;;-147.47;100.00;64613.53;5081265;28;28413;-72
2022/04/10 03:26:31;;;;;;;;;29.00;27.25;;;;;-147.47;100.00;64613.53;5089472;28;28433;-71
2022/04/10 03:28:56;;;;;;;;;30.25;26.00;;;;;-147.47;100.00;64613.53;5090090;28;28739;-73
2022/04/10 03:31:23;;;;;;;;;37.25;28.25;;;;;-147.47;100.00;64613.53;5090058;28;28513;-71
2022/04/10 03:33:51;;;;;;;;;27.50;27.25;;;;;-147.47;100.00;64613.53;5090139;28;29054;-71
2022/04/10 03:36:17;;;;;;;;;33.75;28.00;;;;;-147.47;100.00;64613.53;5223468;22;29805;-72
2022/04/10 03:38:42;;;;;;;;;33.25;31.50;;;;;-147.47;100.00;64613.53;5089627;28;28342;-71
2022/04/10 03:41:08;;;;;;;;;30.25;27.75;;;;;-147.47;100.00;64613.53;5090213;28;28799;-71
2022/04/10 03:43:33;;;;;;;;;32.00;27.25;;;;;-147.47;100.00;64613.53;5089409;28;28869;-71
2022/04/10 03:45:59;;;;;;;;;32.75;28.75;;;;;-147.47;100.00;64613.53;5071119;28;28806;-72
2022/04/10 03:48:25;;;;;;;;;33.00;29.00;;;;;-147.47;100.00;64613.53;5089269;28;28463;-71
2022/04/10 03:50:50;;;;;;;;;31.00;29.75;;;;;-147.47;100.00;64613.53;5089305;28;28884;-71
2022/04/10 03:53:16;;;;;;;;;26.25;25.50;;;;;-147.47;100.00;64613.53;5089136;28;28622;-71
2022/04/10 03:55:42;;;;;;;;;26.50;25.50;;;;;-147.47;100.00;64613.53;5085773;28;28493;-74
2022/04/10 03:58:07;;;;;;;;;31.75;30.00;;;;;-147.47;100.00;64613.53;5080099;28;28656;-73
2022/04/10 04:00:33;;;;;;;;;33.25;29.25;;;;;-147.47;100.00;64613.53;5087928;28;28872;-71
2022/04/10 04:02:58;;;;;;;;;30.00;30.00;;;;;-147.47;100.00;64613.53;5089070;28;28901;-71
2022/04/10 04:05:24;;;;;;;;;28.75;23.25;;;;;-147.47;100.00;64613.53;5088819;28;29588;-72
2022/04/10 04:07:49;;;;;;;;;31.25;29.75;;;;;-147.47;100.00;64613.53;5088987;28;28526;-70
2022/04/10 04:10:15;;;;;;;;;39.00;33.25;;;;;-147.47;100.00;64613.53;5088507;28;28365;-70
2022/04/10 04:12:40;;;;;;;;;32.25;27.75;;;;;-147.47;100.00;64613.53;5088666;28;28369;-71
2022/04/10 04:15:06;;;;;;;;;35.50;30.00;;;;;-147.47;100.00;64613.53;5088314;28;29368;-71
2022/04/10 04:17:32;;;;;;;;;30.00;28.00;;;;;-147.47;100.00;64613.53;5088785;28;28443;-72
2022/04/10 04:19:58;;;;;;;;;30.75;28.00;;;;;-147.47;100.00;64613.53;5089314;28;28652;-70
2022/04/10 04:22:23;;;;;;;;;33.00;27.25;;;;;-147.47;100.00;64613.53;5088843;28;28861;-71
2022/04/10 04:24:49;;;;;;;;;29.50;25.25;;;;;-147.47;100.00;64613.53;5087495;28;29162;-71
2022/04/10 04:27:14;;;;;;;;;28.75;24.50;;;;;-147.47;100.00;64613.53;5083631;28;28535;-69
2022/04/10 04:29:40;;;;;;;;;32.00;29.00;;;;;-147.47;100.00;64613.53;5082083;28;28868;-70
2022/04/10 04:32:06;;;;;;;;;29.50;28.75;;;;;-147.47;100.00;64613.53;5077143;28;29098;-72
2022/04/10 04:34:31;;;;;;;;;32.25;31.50;;;;;-147.47;100.00;64613.53;5082485;28;28784;-70
2022/04/10 04:36:57;;;;;;;;;34.75;27.50;;;;;-147.47;100.00;64613.53;5083143;28;28800;-70
2022/04/10 04:39:23;;;;;;;;;30.00;24.25;;;;;-147.47;100.00;64613.53;5087946;28;28689;-71
2022/04/10 04:41:48;;;;;;;;;33.75;31.00;;;;;-147.47;100.00;64613.53;5083090;28;28872;-70
2022/04/10 04:44:13;;;;;;;;;26.00;26.00;;;;;-147.47;100.00;64613.53;5081623;28;29972;-71
2022/04/10 04:46:39;;;;;;;;;30.50;23.75;;;;;-147.47;100.00;64613.53;5079288;28;28405;-71
2022/04/10 04:49:04;;;;;;;;;30.00;26.25;;;;;-147.47;100.00;64613.53;5085721;28;29730;-70
2022/04/10 04:51:34;;;;;;;;;24.75;23.75;;;;;-147.47;100.00;64613.53;5087618;28;28896;-71
2022/04/10 04:54:01;;;;;;;;;22.75;22.75;;;;;-147.47;100.00;64613.53;5087092;28;28502;-72
2022/04/10 04:56:26;;;;;;;;;29.75;24.75;;;;;-147.47;100.00;64613.53;5082238;28;28480;-70
2022/04/10 04:58:52;;;;;;;;;22.25;22.25;;;;;-147.47;100.00;64613.53;5082038;28;28456;-70
2022/04/10 05:01:17;;;;;;;;;28.00;24.75;;;;;-147.47;100.00;64613.53;5082258;28;28777;-70
2022/04/10 05:03:43;;;;;;;;;32.00;26.25;;;;;-147.47;100.00;64613.53;5068673;28;28579;-71
2022/04/10 05:06:08;;;;;;;;;29.00;25.50;;;;;-147.47;100.00;64613.53;5086967;28;28510;-72
2022/04/10 05:08:33;;;;;;;;;28.00;23.50;;;;;-147.47;100.00;64613.53;5086886;28;28540;-71
2022/04/10 05:11:00;;;;;;;;;22.50;22.25;;;;;-147.47;100.00;64613.53;5086892;28;28806;-69
2022/04/10 05:13:26;;;;;;;;;29.75;24.00;;;;;-147.47;100.00;64613.53;5086473;28;28611;-71
2022/04/10 05:15:52;;;;;;;;;13.25;9.75;;;;;-147.47;100.00;64613.53;5085626;28;28559;-71
2022/04/10 05:18:19;;;;;;;;;23.75;22.50;;;;;-147.47;100.00;64613.53;5083483;28;28387;-70
2022/04/10 05:20:45;;;;;;;;;33.00;26.00;;;;;-147.47;100.00;64613.53;5087404;28;28592;-70
2022/04/10 05:23:11;;;;;;;;;24.00;23.25;;;;;-147.47;100.00;64613.53;5086403;28;28664;-73
2022/04/10 05:25:37;;;;;;;;;27.33;26.00;;;;;-147.47;100.00;64613.53;5089187;28;28530;-72
2022/04/10 05:28:03;;;;;;;;;25.67;22.00;;;;;-147.47;100.00;64613.53;5084934;27;29508;-71
2022/04/10 05:30:28;;;;;;;;;27.00;24.33;;;;;-147.47;100.00;64613.53;5064507;28;30258;-71
2022/04/10 05:32:54;;;;;;;;;22.00;22.00;;;;;-147.47;100.00;64613.53;5070097;27;28845;-72
2022/04/10 05:35:19;;;;;;;;;25.67;24.33;;;;;-147.47;100.00;64613.53;5086641;27;28562;-75
2022/04/10 05:37:45;;;;;;;;;25.33;21.33;;;;;-147.47;100.00;64613.53;5080254;27;28533;-71
2022/04/10 05:40:11;;;;;;;;;25.33;24.33;;;;;-147.47;100.00;64613.53;5084067;27;28749;-71
2022/04/10 05:42:44;;;;;;;;;29.33;24.33;;;;;-147.47;100.00;64613.53;5085194;27;28374;-71
2022/04/10 05:45:10;;;;;;;;;22.33;22.33;;;;;-147.47;100.00;64613.53;5076615;28;28988;-71
2022/04/10 05:47:38;;;;;;;;;25.00;23.33;;;;;-147.47;100.00;64613.53;5079755;27;28618;-72
2022/04/10 05:50:04;;;;;;;;;23.33;22.00;;;;;-147.47;100.00;64613.53;5080939;27;28734;-72
2022/04/10 05:52:29;;;;;;;;;16.67;16.33;;;;;-147.47;100.00;64613.53;5081333;27;28900;-72
2022/04/10 05:54:59;;;;;;;;;23.00;20.67;;;;;-147.47;100.00;64613.53;5079668;27;28602;-72
2022/04/10 05:57:24;;;;;;;;;25.33;23.00;;;;;-147.47;100.00;64613.53;5086334;27;28507;-71
2022/04/10 05:59:50;;;;;;;;;27.00;26.00;;;;;-147.47;100.00;64613.53;5050251;28;28794;-73
2022/04/10 06:02:15;;;;;;;;;30.67;27.33;;;;;-147.47;100.00;64613.53;5066553;28;28814;-73
2022/04/10 06:04:41;;;;;;;;;28.67;25.67;;;;;-147.47;100.00;64613.53;5058164;28;28441;-72
2022/04/10 06:07:06;;;;;;;;;24.00;23.00;;;;;-147.47;100.00;64613.53;5065659;28;28463;-73
2022/04/10 06:09:31;;;;;;;;;25.33;23.33;;;;;-147.47;100.00;64613.53;5066156;28;28586;-75
2022/04/10 06:11:57;;;;;;;;;21.67;19.67;;;;;-147.47;100.00;64613.53;5074837;28;29006;-73
2022/04/10 06:14:23;;;;;;;;;22.00;20.33;;;;;-147.47;100.00;64613.53;5065744;28;28456;-74
2022/04/10 06:16:48;;;;;;;;;21.67;21.00;;;;;-147.47;100.00;64613.53;5061620;28;29008;-72
2022/04/10 06:19:16;;;;;;;;;19.67;19.00;;;;;-147.47;100.00;64613.53;5066307;28;28890;-75
2022/04/10 06:21:41;;;;;;;;;22.00;19.00;;;;;-147.47;100.00;64613.53;5047328;28;29007;-75
2022/04/10 06:24:07;;;;;;;;;22.67;19.33;;;;;-147.47;100.00;64613.53;5066071;28;28566;-73
2022/04/10 06:26:33;;;;;;;;;21.67;21.33;;;;;-147.47;100.00;64613.53;5065602;28;28574;-74
2022/04/10 06:28:58;;;;;;;;;24.33;22.33;;;;;-147.47;100.00;64613.53;5065663;28;29361;-72
2022/04/10 06:31:24;;;;;;;;;21.00;20.00;;;;;-147.47;100.00;64613.53;5065689;28;28578;-73
2022/04/10 06:33:50;;;;;;;;;21.33;20.33;;;;;-147.47;100.00;64613.53;5066321;28;28658;-72
2022/04/10 06:36:16;;;;;;;;;20.67;17.33;;;;;-147.47;100.00;64613.53;5065041;28;28578;-73
2022/04/10 06:38:42;;;;;;;;;18.00;18.00;;;;;-147.47;100.00;64613.53;5062770;28;28825;-72
2022/04/10 06:41:08;;;;;;;;;20.33;19.00;;;;;-147.47;100.00;64613.53;5063267;28;28956;-74
2022/04/10 06:43:33;;;;;;;;;17.00;14.67;;;;;-147.47;100.00;64613.53;5065078;28;28760;-74
2022/04/10 06:45:59;;;;;;;;;21.33;20.67;;;;;-147.47;100.00;64613.53;5067996;28;28765;-72
2022/04/10 06:48:24;;;;;;;;;19.33;14.33;;;;;-147.47;100.00;64613.53;5065129;28;28856;-74
2022/04/10 06:50:50;;;;;;;;;19.00;18.00;;;;;-147.47;100.00;64613.53;5047317;28;29665;-74
2022/04/10 06:53:15;;;;;;;;;23.00;20.33;;;;;-147.47;100.00;64613.53;5068174;28;28607;-76
2022/04/10 06:55:41;;;;;;;;;18.67;18.67;;;;;-147.47;100.00;64613.53;5061571;28;29622;-72
2022/04/10 06:58:06;;;;;;;;;20.33;17.00;;;;;-147.47;100.00;64613.53;5068196;28;29197;-71
2022/04/10 07:00:32;;;;;;;;;19.33;19.33;;;;;-147.47;100.00;64613.53;5067742;28;29260;-72
2022/04/10 07:03:01;;;;;;;;;19.00;19.00;;;;;-147.47;100.00;64613.53;5066564;28;28869;-71
2022/04/10 07:05:27;;;;;;;;;18.67;18.67;;;;;-147.47;100.00;64613.53;5067365;28;28802;-70
2022/04/10 07:07:53;;;;;;;;;22.00;19.67;;;;;-147.47;100.00;64613.53;5061768;28;28675;-70
2022/04/10 07:10:19;;;;;;;;;19.00;18.33;;;;;-147.47;100.00;64613.53;5067478;28;28590;-72
2022/04/10 07:12:45;;;;;;;;;19.67;18.33;;;;;-147.47;100.00;64613.53;5067655;28;28596;-69
2022/04/10 07:15:10;;;;;;;;;22.67;21.33;;;;;-147.47;100.00;64613.53;5063127;28;28456;-74
2022/04/10 07:17:36;;;;;;;;;18.33;17.00;;;;;-147.47;100.00;64613.53;5048870;28;28921;-74
2022/04/10 07:20:02;;;;;;;;;20.33;17.00;;;;;-147.47;100.00;64613.53;5063829;28;28547;-78
2022/04/10 07:25:31;;;;;;;;;19.00;17.33;;;;;-147.47;100.00;64613.53;4992698;28;28600;-72
2022/04/10 07:27:56;;;;;;;;;19.00;18.33;;;;;-147.47;100.00;64613.53;4984841;28;28858;-73
2022/04/10 07:30:22;;;;;;;;;17.00;15.33;;;;;-147.47;100.00;64613.53;5023423;28;28783;-74
2022/04/10 07:32:54;;;;;;;;;21.33;16.33;;;;;-147.47;100.00;64613.53;5068664;28;28504;-74
2022/04/10 07:35:21;;;;;;;;;17.33;15.67;;;;;-147.47;100.00;64613.53;5064214;28;28574;-72
2022/04/10 07:37:47;;;;;;;;;18.33;17.00;;;;;-147.47;100.00;64613.53;5067093;28;28816;-75
2022/04/10 07:40:13;;;;;;;;;14.25;14.25;;;;;-147.47;100.00;64613.53;5048643;28;29972;-73
2022/04/10 07:42:43;;;;;;;;;19.75;17.25;;;;;-147.47;100.00;64613.53;5065636;28;28595;-73
2022/04/10 07:45:10;;;;;;;;;17.00;16.33;;;;;-147.47;100.00;64613.53;5065949;28;28855;-78
2022/04/10 07:47:36;;;;;;;;;15.75;15.75;;;;;-147.47;100.00;64613.53;5064442;28;28605;-70
2022/04/10 07:50:03;;;;;;;;;21.00;18.67;;;;;-147.47;100.00;64613.53;5037387;28;29795;-73
2022/04/10 07:52:28;;;;;;;;;20.75;18.00;;;;;-147.47;100.00;64613.53;5060506;28;28570;-72
2022/04/10 07:54:54;;;;;;;;;22.00;18.67;;;;;-147.47;100.00;64613.53;5046658;28;28997;-72
2022/04/10 07:57:19;;;;;;;;;20.33;20.33;;;;;-147.47;100.00;64613.53;5061121;28;28951;-74
2022/04/10 07:59:45;;;;;;;;;23.00;21.67;;;;;-147.47;100.00;64613.53;5063617;28;29592;-71
2022/04/10 08:02:11;;;;;;;;;23.67;20.67;;;;;-147.47;100.00;64613.53;5070352;28;28761;-73
2022/04/10 08:04:38;;;;;;;;;21.67;18.67;;;;;-147.47;100.00;64613.53;5067896;28;28586;-74
2022/04/10 08:07:04;;;;;;;;;26.00;24.67;;;;;-147.47;100.00;64613.53;5068481;28;28517;-72
2022/04/10 08:09:29;;;;;;;;;23.00;23.00;;;;;-147.47;100.00;64613.53;5064474;28;29485;-74
2022/04/10 08:11:55;;;;;;;;;26.33;25.00;;;;;-147.47;100.00;64613.53;5066972;28;28963;-73
2022/04/10 08:14:21;;;;;;;;;26.33;23.67;;;;;-147.47;100.00;64613.53;5073067;28;28563;-73
2022/04/10 08:16:46;;;;;;;;;20.33;20.33;;;;;-147.47;100.00;64613.53;5051155;28;30440;-72
2022/04/10 08:19:12;;;;;;;;;17.00;15.67;;;;;-147.47;100.00;64613.53;5046126;28;29948;-72
2022/04/10 08:21:38;;;;;;;;;20.00;19.00;;;;;-147.47;100.00;64613.53;5065202;28;29939;-71
2022/04/10 08:24:04;;;;;;;;;17.00;16.67;;;;;-147.47;100.00;64613.53;5061934;28;28664;-72
2022/04/10 08:26:29;;;;;;;;;14.67;14.67;;;;;-147.47;100.00;64613.53;5064194;28;29540;-72
2022/04/10 08:28:55;;;;;;;;;15.00;13.67;;;;;-147.47;100.00;64613.53;5068010;28;28437;-69
2022/04/10 08:31:20;;;;;;;;;17.00;16.00;;;;;-147.47;100.00;64613.53;5064956;28;28725;-70
2022/04/10 08:33:46;;;;;;;;;21.67;19.00;;;;;-147.47;100.00;64613.53;5066890;28;28402;-72
2022/04/10 08:36:12;;;;;;;;;21.67;20.33;;;;;-147.47;100.00;64613.53;5067285;28;28683;-70
2022/04/10 08:38:37;;;;;;;;;19.67;19.67;;;;;-147.47;100.00;64613.53;5068468;28;28503;-71
2022/04/10 08:41:03;;;;;;;;;15.67;15.67;;;;;-147.47;100.00;64613.53;5067369;28;28927;-70
2022/04/10 08:43:29;;;;;;;;;18.33;16.33;;;;;-147.47;100.00;64613.53;5068759;28;28516;-71
2022/04/10 08:45:57;;;;;;;;;23.00;20.33;;;;;-147.47;100.00;64613.53;5067757;28;28429;-70
2022/04/10 08:48:26;;;;;;;;;21.33;21.33;;;;;-147.47;100.00;64613.53;5064397;28;29986;-71
2022/04/10 08:50:55;;;;;;;;;27.67;24.67;;;;;-147.47;100.00;64613.53;5060044;28;28677;-70
2022/04/10 08:53:23;;;;;;;;;30.33;27.00;;;;;-147.47;100.00;64613.53;5063736;28;28467;-71
2022/04/10 08:55:48;;;;;;;;;27.33;22.33;;;;;-147.47;100.00;64613.53;5063162;28;28467;-70
2022/04/10 08:58:14;;;;;;;;;22.67;22.33;;;;;-147.47;100.00;64613.53;5068794;28;28637;-71
2022/04/10 09:00:43;;;;;;;;;21.00;19.33;;;;;-147.47;100.00;64613.53;5063425;28;28909;-72
2022/04/10 09:03:08;;;;;;;;;29.33;28.33;;;;;-147.47;100.00;64613.53;5064323;28;28794;-70
2022/04/10 09:05:34;;;;;;;;;24.33;24.00;;;;;-147.47;100.00;64613.53;5054505;28;28602;-71
2022/04/10 09:08:17;;;;;;;;;17.33;16.33;;;;;-147.47;100.00;64613.53;5066443;28;28472;-70
2022/04/10 09:11:03;;;;;;;;;19.33;18.00;;;;;-147.47;100.00;64613.53;5066715;28;28680;-71
2022/04/10 09:13:33;;;;;;;;;16.67;14.00;;;;;-147.47;100.00;64613.53;5062126;28;28589;-76
2022/04/10 09:16:07;;;;;;;;;11.67;10.33;;;;;-147.47;100.00;64613.53;5049265;28;29789;-76
2022/04/10 09:18:48;;;;;;;;;6.80;6.60;;;;;-147.47;100.00;64613.53;5068166;28;28978;-76
2022/04/10 09:21:15;;;;;;;;;7.25;6.00;;;;;-147.47;100.00;64613.53;5064913;28;28318;-78
2022/04/10 09:23:41;;;;;;;;;7.50;5.00;;;;;-147.47;100.00;64613.53;5064086;28;28729;-78
2022/04/10 09:26:06;;;;;;;;;6.40;6.40;;;;;-147.47;100.00;64613.53;5058593;28;29237;-77
2022/04/10 09:28:47;;;;;;;;;8.75;5.75;;;;;-147.47;100.00;64613.53;5066817;28;28417;-78
2022/04/10 09:31:29;;;;;;;;;5.40;4.80;;;;;-147.47;100.00;64613.53;5067149;28;28461;-78
2022/04/10 09:33:56;;;;;;;;;6.00;6.00;;;;;-147.47;100.00;64613.53;5059937;28;28625;-75
2022/04/10 09:36:35;;;;;;;;;6.00;6.00;;;;;-147.47;100.00;64613.53;5045553;28;28786;-76
2022/04/10 09:39:04;;;;;;;;;7.20;6.00;;;;;-147.47;100.00;64613.53;5047318;28;28901;-77
2022/04/10 09:41:29;;;;;;;;;5.80;5.80;;;;;-147.47;100.00;64613.53;5047598;28;28464;-74
2022/04/10 09:43:59;;;;;;;;;12.00;8.25;;;;;-147.47;100.00;64613.53;5047149;28;28453;-74
2022/04/10 09:46:24;;;;;;;;;9.80;8.60;;;;;-147.47;100.00;64613.53;5047050;28;28481;-76
2022/04/10 09:48:50;;;;;;;;;10.50;8.00;;;;;-147.47;100.00;64613.53;5046301;28;28464;-75
2022/04/10 09:51:15;;;;;;;;;8.50;7.50;;;;;-147.47;100.00;64613.53;5060903;28;28633;-74
2022/04/10 09:54:00;;;;;;;;;7.00;7.00;;;;;-147.47;100.00;64613.53;5067700;28;28749;-77
2022/04/10 09:56:27;;;;;;;;;7.60;7.40;;;;;-147.47;100.00;64613.53;5067406;28;28528;-76
2022/04/10 09:58:56;;;;;;;;;5.20;5.20;;;;;-147.47;100.00;64613.53;5062933;28;29064;-76
2022/04/10 10:01:22;;;;;;;;;5.60;5.60;;;;;-147.47;100.00;64613.53;5045624;28;28558;-75
2022/04/10 10:03:48;;;;;;;;;5.50;5.50;;;;;-147.47;100.00;64613.53;5062532;28;28700;-74
2022/04/10 10:06:14;;;;;;;;;6.60;5.40;;;;;-147.47;100.00;64613.53;5062966;28;28652;-77
2022/04/10 10:08:39;;;;;;;;;7.00;7.00;;;;;-147.47;100.00;64613.53;5065473;28;28805;-75
2022/04/10 10:11:08;;;;;;;;;10.00;8.75;;;;;-147.47;100.00;64613.53;5068588;28;28749;-74
2022/04/10 10:13:37;;;;;;;;;8.20;6.80;;;;;-147.47;100.00;64613.53;5066476;28;28141;-78
2022/04/10 10:16:02;;;;;;;;;8.00;7.60;;;;;-147.47;100.00;64613.53;5057867;28;29731;-77
2022/04/10 10:18:28;;;;;;;;;4.75;4.50;;;;;-147.47;100.00;64613.53;5065960;28;29355;-75
2022/04/10 10:20:54;;;;;;;;;7.75;7.50;;;;;-147.47;100.00;64613.53;5066081;28;28539;-75
2022/04/10 10:23:22;;;;;;;;;4.20;4.20;;;;;-147.47;100.00;64613.53;5067532;28;29147;-77
2022/04/10 10:26:04;;;;;;;;;4.40;4.40;;;;;-147.47;100.00;64613.53;5062987;28;28752;-75
2022/04/10 10:29:06;;;;;;;;;4.80;4.80;;;;;-147.47;100.00;64613.53;5043574;28;28843;-77
2022/04/10 10:31:47;;;;;;;;;4.00;4.00;;;;;-147.47;100.00;64613.53;5064795;28;28455;-76
2022/04/10 10:34:14;;;;;;;;;5.00;5.00;;;;;-147.47;100.00;64613.53;5064640;28;28656;-77
2022/04/10 10:36:39;;;;;;;;;4.60;4.60;;;;;-147.47;100.00;64613.53;5058992;28;28483;-74
2022/04/10 10:39:06;;;;;;;;;5.75;5.75;;;;;-147.47;100.00;64613.53;5067564;28;28800;-75
2022/04/10 10:41:38;;;;;;;;;5.60;5.60;;;;;-147.47;100.00;64613.53;5059369;28;28654;-75
2022/04/10 10:44:26;;;;;;;;;5.40;4.60;;;;;-147.47;100.00;64613.53;5060449;28;28563;-77
2022/04/10 10:46:55;;;;;;;;;9.00;8.00;;;;;-147.47;100.00;64613.53;5054482;28;28853;-75
2022/04/10 10:49:21;;;;;;;;;7.00;7.00;;;;;-147.47;100.00;64613.53;5067514;28;28522;-75
2022/04/10 10:51:48;;;;;;;;;3.50;3.50;;;;;-147.47;100.00;64613.53;5047614;28;28848;-76
2022/04/10 10:54:26;;;;;;;;;5.80;4.40;;;;;-147.47;100.00;64613.53;5066988;28;28690;-74
2022/04/10 10:56:52;;;;;;;;;4.00;4.00;;;;;-147.47;100.00;64613.53;5056497;28;29101;-77
2022/04/10 10:59:39;;;;;;;;;7.00;6.00;;;;;-147.47;100.00;64613.53;5062374;28;29971;-75